Time;durP1;ratioP1;P1;durP2;ratioP2;P2;SDS_P1;SDS_P2;PMS_P1;PMS_P2;Temp;Humidity;BMP_temperature;BMP_pressure;BME280_temperature;BME280_humidity;BME280_pressure;Samples;Min_cycle;Max_cycle;Signal;HPM_P1;HPM_P2
2022/01/19 00:00:56;;;;;;;8.60;3.20;;;;;;;0.94;50.94;101077.00;5049188;28;20032;-37
2022/01/19 00:03:21;;;;;;;6.18;2.75;;;;;;;0.72;51.11;101093.38;5050203;28;20032;-37
2022/01/19 00:05:49;;;;;;;9.38;3.50;;;;;;;1.37;50.89;101094.88;5050225;28;20017;-35
2022/01/19 00:08:18;;;;;;;7.35;3.13;;;;;;;1.26;49.71;101097.47;5049952;28;20056;-36
2022/01/19 00:10:44;;;;;;;8.68;3.80;;;;;;;1.26;50.05;101074.69;5050212;28;20017;-37
2022/01/19 00:13:09;;;;;;;5.55;2.95;;;;;;;1.28;50.37;101113.94;5049942;28;20644;-36
2022/01/19 00:15:34;;;;;;;5.35;3.10;;;;;;;1.10;50.96;101116.06;5050174;28;20055;-36
2022/01/19 00:18:00;;;;;;;7.50;2.90;;;;;;;1.00;51.45;101115.03;5050373;28;20020;-36
2022/01/19 00:20:27;;;;;;;10.32;3.20;;;;;;;0.68;51.33;101115.50;5049716;28;20484;-37
2022/01/19 00:22:53;;;;;;;8.60;3.53;;;;;;;0.66;52.25;101118.22;5050319;28;20056;-36
2022/01/19 00:25:19;;;;;;;9.90;3.20;;;;;;;0.64;52.66;101109.63;5050170;28;20068;-37
2022/01/19 00:27:44;;;;;;;8.35;2.90;;;;;;;0.90;52.20;101109.59;5049929;28;20025;-37
2022/01/19 00:30:10;;;;;;;6.47;3.38;;;;;;;1.05;51.63;101105.03;5049808;28;20025;-38
2022/01/19 00:32:35;;;;;;;5.15;2.92;;;;;;;1.10;51.20;101109.03;5049719;28;20037;-38
2022/01/19 00:35:02;;;;;;;7.30;3.00;;;;;;;0.86;51.51;101108.97;5049249;28;20535;-36
2022/01/19 00:37:27;;;;;;;6.82;3.38;;;;;;;0.57;52.09;101121.47;5049626;28;20028;-37
2022/01/19 00:39:53;;;;;;;8.40;3.20;;;;;;;0.77;54.53;101125.34;5049337;28;20028;-36
2022/01/19 00:42:18;;;;;;;5.88;3.25;;;;;;;0.46;52.74;101123.97;5049898;28;20017;-37
2022/01/19 00:44:44;;;;;;;7.65;3.33;;;;;;;0.33;52.96;101130.06;5049636;28;20025;-37
2022/01/19 00:47:10;;;;;;;6.57;2.80;;;;;;;0.28;53.06;101129.50;5049567;28;20045;-36
2022/01/19 00:49:35;;;;;;;7.22;3.25;;;;;;;0.24;53.74;101135.06;5049244;28;20491;-37
2022/01/19 00:52:00;;;;;;;7.80;3.60;;;;;;;0.55;52.74;101133.81;5049259;28;20037;-36
2022/01/19 00:54:26;;;;;;;8.13;3.47;;;;;;;0.61;52.71;101127.31;5049186;28;20028;-37
2022/01/19 00:56:51;;;;;;;8.15;3.20;;;;;;;0.51;52.96;101120.09;5049335;28;20036;-36
2022/01/19 00:59:17;;;;;;;8.55;3.38;;;;;;;0.75;52.18;101122.81;5049690;28;20523;-37
2022/01/19 01:01:42;;;;;;;6.47;3.20;;;;;;;0.42;53.48;101128.59;5049394;28;20017;-37
2022/01/19 01:04:08;;;;;;;8.52;2.83;;;;;;;0.22;54.25;101136.97;5049382;28;20025;-36
2022/01/19 01:06:33;;;;;;;7.13;3.15;;;;;;;0.53;53.37;101128.72;5049354;28;20087;-36
2022/01/19 01:08:59;;;;;;;6.20;2.83;;;;;;;0.28;53.36;101132.13;5048744;28;20069;-36
2022/01/19 01:11:28;;;;;;;5.60;2.78;;;;;;;0.38;53.27;101132.34;5049045;28;20024;-37
2022/01/19 01:16:38;;;;;;;7.20;3.05;;;;;;;0.29;53.47;101139.06;5048967;28;20541;-36
2022/01/19 01:19:05;;;;;;;8.40;3.15;;;;;;;0.43;52.68;101140.75;5048827;28;20021;-36
2022/01/19 01:21:30;;;;;;;6.20;2.95;;;;;;;0.26;53.71;101147.13;5049003;28;20044;-36
2022/01/19 01:23:56;;;;;;;3.97;2.35;;;;;;;0.10;52.44;101144.69;5047618;28;20374;-36
2022/01/19 01:26:21;;;;;;;6.60;2.85;;;;;;;0.26;52.31;101151.53;5048693;28;20094;-36
2022/01/19 01:28:47;;;;;;;6.40;2.90;;;;;;;0.61;51.53;101146.53;5045884;28;20021;-36
2022/01/19 01:31:12;;;;;;;9.57;2.88;;;;;;;0.53;51.03;101140.97;5049999;28;20465;-36
2022/01/19 01:33:38;;;;;;;5.28;2.78;;;;;;;0.68;51.54;101139.91;5053305;28;20025;-37
2022/01/19 01:36:04;;;;;;;8.13;2.90;;;;;;;0.50;51.52;101128.91;5053296;28;20025;-37
2022/01/19 01:38:29;;;;;;;3.78;2.20;;;;;;;0.29;51.77;101128.59;5053355;28;20032;-36
2022/01/19 01:40:55;;;;;;;6.43;3.15;;;;;;;0.42;52.19;101130.38;5053611;28;20303;-37
2022/01/19 01:43:21;;;;;;;4.72;2.90;;;;;;;0.87;50.81;101138.66;5053291;28;20021;-37
2022/01/19 01:45:50;;;;;;;6.25;2.50;;;;;;;1.10;50.62;101130.00;5053397;28;20181;-36
2022/01/19 01:48:18;;;;;;;5.82;2.85;;;;;;;0.63;51.38;101130.69;5053282;28;20132;-36
2022/01/19 01:53:30;;;;;;;5.75;2.67;;;;;;;0.45;53.89;101122.31;5052428;28;20047;-36
2022/01/19 01:56:10;;;;;;;5.88;2.67;;;;;;;0.41;52.18;101118.22;5053473;28;20484;-36
2022/01/19 01:58:40;;;;;;;6.63;3.22;;;;;;;0.79;51.47;101120.84;5053529;28;20028;-36
2022/01/19 02:01:06;;;;;;;7.18;2.90;;;;;;;0.79;52.00;101128.69;5053486;28;20108;-36
2022/01/19 02:03:37;;;;;;;8.40;3.00;;;;;;;0.56;52.28;101119.78;5053156;28;20469;-37
2022/01/19 02:15:48;;;;;;;6.72;3.10;;;;;;;0.65;51.56;101113.94;5052683;28;20438;-36
2022/01/19 02:23:11;;;;;;;9.98;3.45;;;;;;;0.53;52.03;101099.03;5053223;28;20040;-37
2022/01/19 02:25:39;;;;;;;7.05;3.63;;;;;;;0.36;52.54;101103.66;5053181;28;20021;-36
2022/01/19 02:41:36;;;;;;;7.15;3.17;;;;;;;0.27;52.42;101098.22;5051662;28;20044;-36
2022/01/19 02:44:02;;;;;;;10.48;3.83;;;;;;;0.11;51.98;101106.25;5052137;28;20035;-36
2022/01/19 02:49:17;;;;;;;7.63;3.33;;;;;;;0.39;51.67;101102.63;5041655;28;20131;-37
2022/01/19 02:51:46;;;;;;;9.90;3.63;;;;;;;0.31;51.80;101110.16;5052266;28;20032;-37
2022/01/19 02:54:13;;;;;;;10.70;3.53;;;;;;;0.44;51.14;101102.28;5052582;28;20059;-37
2022/01/19 02:56:40;;;;;;;8.85;3.50;;;;;;;0.23;52.10;101115.91;5051043;28;20043;-37
2022/01/19 02:59:18;;;;;;;6.15;3.17;;;;;;;0.15;52.86;101120.81;5052382;28;20040;-38
2022/01/19 03:09:43;;;;;;;7.40;3.67;;;;;;;0.04;51.92;101107.59;5051976;28;20127;-36
2022/01/19 03:12:09;;;;;;;6.15;3.15;;;;;;;-0.41;53.28;101119.19;5051886;28;20029;-36
2022/01/19 03:14:34;;;;;;;6.63;3.15;;;;;;;-0.29;52.75;101109.69;5051885;28;20033;-35
2022/01/19 03:17:00;;;;;;;5.18;2.65;;;;;;;-0.32;53.19;101107.31;5051853;28;20397;-36
2022/01/19 03:19:28;;;;;;;4.43;2.60;;;;;;;-0.51;53.57;101115.50;5051770;28;20033;-36
2022/01/19 03:21:53;;;;;;;6.60;3.05;;;;;;;-0.44;53.59;101122.03;5051789;28;20027;-36
2022/01/19 03:24:19;;;;;;;7.35;3.03;;;;;;;-0.19;53.00;101099.50;5051483;28;20029;-36
2022/01/19 03:26:44;;;;;;;5.55;2.60;;;;;;;-0.09;52.23;101118.06;5050725;28;20028;-36
2022/01/19 03:29:10;;;;;;;5.93;3.15;;;;;;;-0.15;52.57;101111.44;5051266;28;20036;-37
2022/01/19 03:31:35;;;;;;;8.57;2.78;;;;;;;-0.18;53.15;101113.41;5051100;28;20130;-36
2022/01/19 03:34:01;;;;;;;4.65;2.90;;;;;;;-0.33;53.23;101115.25;5051042;28;20028;-36
2022/01/19 03:36:27;;;;;;;6.32;2.97;;;;;;;-0.31;53.88;101129.06;5051170;28;20459;-36
2022/01/19 03:38:53;;;;;;;8.20;3.00;;;;;;;-0.48;54.22;101123.13;5050639;28;20457;-36
2022/01/19 03:41:18;;;;;;;5.80;3.03;;;;;;;-0.11;53.27;101123.38;5050669;28;20025;-36
2022/01/19 03:43:44;;;;;;;6.43;2.97;;;;;;;-0.31;53.28;101116.81;5050039;28;20342;-36
2022/01/19 03:46:18;;;;;;;7.32;3.10;;;;;;;-0.05;53.44;101119.53;5050809;28;20510;-37
2022/01/19 03:48:58;;;;;;;5.72;2.70;;;;;;;-0.12;53.57;101128.72;5050335;28;20135;-37
2022/01/19 03:51:24;;;;;;;10.05;3.97;;;;;;;-0.01;53.66;101127.06;5050025;28;20111;-36
2022/01/19 03:53:49;;;;;;;11.55;4.10;;;;;;;0.02;52.47;101128.66;5049127;28;20104;-36
2022/01/19 03:56:16;;;;;;;5.53;3.10;;;;;;;-0.20;52.57;101126.59;5049997;28;20135;-37
2022/01/19 03:58:41;;;;;;;4.97;2.88;;;;;;;-0.09;52.26;101116.25;5050868;28;20027;-38
2022/01/19 04:01:07;;;;;;;4.13;2.25;;;;;;;-0.37;52.61;101117.22;5050483;28;20029;-36
2022/01/19 04:06:16;;;;;;;7.80;2.97;;;;;;;-0.02;51.75;101120.16;5050137;28;20047;-36
2022/01/19 04:08:42;;;;;;;5.85;2.78;;;;;;;-0.13;52.50;101124.41;5049779;28;20053;-36
2022/01/19 04:11:07;;;;;;;5.47;2.63;;;;;;;-0.15;51.91;101124.53;5050209;28;20098;-36
2022/01/19 04:13:44;;;;;;;30.00;9.65;;;;;;;-0.22;52.28;101118.84;5049345;28;20024;-36
2022/01/19 04:16:10;;;;;;;11.73;5.10;;;;;;;-0.07;51.68;101119.63;5049737;28;20036;-36
2022/01/19 04:18:36;;;;;;;6.10;3.22;;;;;;;-0.08;52.28;101130.19;5049806;28;20029;-36
2022/01/19 04:21:02;;;;;;;6.10;3.08;;;;;;;0.13;51.27;101134.03;5049731;28;20036;-36
2022/01/19 04:23:27;;;;;;;4.43;2.63;;;;;;;-0.18;51.98;101145.66;5050041;28;20098;-37
2022/01/19 04:25:53;;;;;;;5.72;2.58;;;;;;;0.13;51.35;101139.25;5050309;28;20036;-37
2022/01/19 04:28:19;;;;;;;7.07;3.13;;;;;;;0.42;50.50;101133.84;5049794;28;20029;-36
2022/01/19 04:30:44;;;;;;;4.60;2.88;;;;;;;0.06;50.71;101131.88;5049593;28;20086;-37
2022/01/19 04:33:17;;;;;;;5.25;2.75;;;;;;;0.07;50.66;101131.78;5049460;28;20045;-36
2022/01/19 04:36:20;;;;;;;5.18;2.55;;;;;;;-0.02;50.84;101129.78;5049722;28;20028;-36
2022/01/19 04:44:32;;;;;;;5.82;2.78;;;;;;;0.01;50.76;101147.91;5049725;28;20086;-36
2022/01/19 05:04:51;;;;;;;4.32;2.80;;;;;;;0.06;50.85;101156.31;5045649;28;20399;-36
2022/01/19 05:15:08;;;;;;;8.07;3.00;;;;;;;-0.06;52.07;101186.75;5049007;28;20036;-36
2022/01/19 05:17:36;;;;;;;7.28;3.00;;;;;;;-0.20;52.49;101189.41;5048955;28;20451;-37
2022/01/19 05:20:03;;;;;;;4.63;2.80;;;;;;;0.05;51.69;101193.88;5048810;28;20114;-36
2022/01/19 05:22:28;;;;;;;9.63;3.10;;;;;;;0.25;55.31;101202.19;5048777;28;20124;-37
2022/01/19 05:24:53;;;;;;;11.27;3.80;;;;;;;0.92;63.50;101209.94;5046640;28;20017;-37
2022/01/19 05:27:21;;;;;;;6.78;3.55;;;;;;;3.18;60.93;101208.34;5030721;28;20691;-37
2022/01/19 05:29:47;;;;;;;9.15;4.07;;;;;;;3.24;54.75;101208.72;5036297;28;20053;-38
2022/01/19 05:32:12;;;;;;;11.18;4.22;;;;;;;2.94;46.38;101199.63;5049257;28;20052;-37
2022/01/19 05:34:38;;;;;;;9.88;4.03;;;;;;;1.80;47.93;101203.78;5049162;28;20028;-37
2022/01/19 05:37:04;;;;;;;9.30;4.15;;;;;;;0.89;49.94;101212.78;5049668;28;20408;-37
2022/01/19 05:39:29;;;;;;;9.05;3.72;;;;;;;0.52;50.46;101217.88;5049255;28;20052;-37
2022/01/19 05:41:54;;;;;;;8.93;4.32;;;;;;;0.30;51.04;101205.34;5049167;28;20663;-37
2022/01/19 05:44:20;;;;;;;11.57;4.72;;;;;;;-0.01;51.76;101216.06;5047586;28;20032;-37
2022/01/19 05:46:45;;;;;;;8.25;3.50;;;;;;;0.09;51.86;101213.69;5047718;28;20103;-37
2022/01/19 05:49:11;;;;;;;6.53;3.33;;;;;;;0.28;53.05;101223.78;5047519;28;20104;-37
2022/01/19 05:51:36;;;;;;;9.13;3.58;;;;;;;0.22;51.50;101231.22;5046378;28;20086;-37
2022/01/19 05:54:02;;;;;;;8.43;3.22;;;;;;;0.18;51.50;101241.88;5046458;28;20025;-36
2022/01/19 05:56:27;;;;;;;7.63;3.40;;;;;;;0.05;51.90;101240.16;5046311;28;20027;-36
2022/01/19 05:58:53;;;;;;;8.13;3.13;;;;;;;0.04;51.99;101243.72;5046865;28;20026;-36
2022/01/19 06:01:18;;;;;;;9.52;4.38;;;;;;;0.28;51.77;101243.91;5046860;28;20451;-37
2022/01/19 06:03:44;;;;;;;8.77;4.43;;;;;;;0.72;52.40;101246.22;5047794;28;20021;-37
2022/01/19 06:06:10;;;;;;;7.15;4.15;;;;;;;0.83;51.03;101244.66;5048062;28;20395;-37
2022/01/19 06:08:43;;;;;;;15.95;7.45;;;;;;;0.98;51.16;101248.84;5048073;28;20125;-36
2022/01/19 06:11:09;;;;;;;47.30;18.88;;;;;;;1.12;51.02;101250.50;5048041;28;20096;-38
2022/01/19 06:13:35;;;;;;;11.40;4.40;;;;;;;1.37;49.88;101257.53;5047530;28;20078;-37
2022/01/19 06:16:01;;;;;;;7.32;3.97;;;;;;;1.78;49.35;101269.53;5046688;28;20032;-37
2022/01/19 06:18:26;;;;;;;8.05;4.40;;;;;;;2.02;47.75;101273.97;5051237;28;20446;-38
2022/01/19 06:20:52;;;;;;;10.20;3.92;;;;;;;2.16;47.37;101276.44;5051999;28;20029;-36
2022/01/19 06:23:17;;;;;;;7.35;3.83;;;;;;;1.94;47.24;101267.50;5051949;28;20033;-37
2022/01/19 06:25:43;;;;;;;8.15;4.22;;;;;;;2.17;48.00;101267.63;5051888;28;20029;-37
2022/01/19 06:28:08;;;;;;;9.52;4.43;;;;;;;2.40;46.90;101265.94;5051699;28;20416;-37
2022/01/19 06:30:33;;;;;;;8.85;4.10;;;;;;;2.37;45.68;101271.41;5051544;28;20044;-37
2022/01/19 06:32:59;;;;;;;8.75;3.75;;;;;;;2.45;46.44;101278.72;5051591;28;20023;-39
2022/01/19 06:35:24;;;;;;;5.70;3.22;;;;;;;2.41;45.98;101282.53;5051479;28;20036;-38
2022/01/19 06:37:50;;;;;;;8.25;3.70;;;;;;;2.72;45.11;101271.41;5051519;28;20025;-36
2022/01/19 06:40:16;;;;;;;6.93;3.28;;;;;;;2.99;45.32;101275.53;5051457;28;20032;-37
2022/01/19 06:42:42;;;;;;;8.20;3.85;;;;;;;3.07;44.22;101278.41;5051453;28;20021;-38
2022/01/19 06:45:08;;;;;;;7.97;3.60;;;;;;;3.39;43.87;101282.16;5050966;28;20082;-38
2022/01/19 06:47:33;;;;;;;11.07;5.40;;;;;;;3.62;43.35;101283.84;5051058;28;20021;-38
2022/01/19 06:49:59;;;;;;;7.45;4.03;;;;;;;3.69;43.25;101292.06;5050811;28;20141;-38
2022/01/19 06:52:24;;;;;;;8.90;3.70;;;;;;;3.63;43.34;101290.75;5050834;28;20025;-38
2022/01/19 06:54:50;;;;;;;8.32;3.60;;;;;;;3.94;44.51;101292.75;5050614;28;20013;-37
2022/01/19 06:57:15;;;;;;;5.70;3.67;;;;;;;3.47;43.44;101291.13;5050791;28;20048;-37
2022/01/19 06:59:41;;;;;;;7.00;3.83;;;;;;;3.41;44.05;101286.34;5051034;28;20025;-37
2022/01/19 07:02:06;;;;;;;7.38;3.70;;;;;;;3.88;43.19;101288.81;5051244;28;20695;-37
2022/01/19 07:04:32;;;;;;;12.05;6.38;;;;;;;4.34;42.48;101285.13;5051509;28;20020;-38
2022/01/19 07:06:57;;;;;;;21.58;10.43;;;;;;;4.64;41.49;101284.38;5051113;28;20165;-38
2022/01/19 07:09:23;;;;;;;8.68;3.17;;;;;;;4.26;41.58;101284.91;5050478;28;20619;-38
2022/01/19 07:11:49;;;;;;;8.77;4.05;;;;;;;4.38;41.74;101273.38;5050831;28;20045;-37
2022/01/19 07:14:17;;;;;;;8.95;3.78;;;;;;;4.51;41.14;101278.44;5050365;28;20027;-37
2022/01/19 07:16:42;;;;;;;8.20;3.88;;;;;;;4.50;42.77;101275.00;5050708;28;20043;-38
2022/01/19 07:19:08;;;;;;;8.68;3.78;;;;;;;4.31;43.55;101285.38;5050904;28;20060;-37
2022/01/19 07:21:34;;;;;;;8.07;4.05;;;;;;;5.03;41.56;101284.66;5050707;28;20036;-37
2022/01/19 07:23:59;;;;;;;8.48;4.22;;;;;;;4.40;42.25;101279.34;5050558;28;20063;-37
2022/01/19 07:26:25;;;;;;;8.98;4.20;;;;;;;4.73;42.37;101276.69;5050481;28;20036;-37
2022/01/19 07:28:50;;;;;;;7.80;4.47;;;;;;;4.71;42.35;101282.09;5049257;28;20032;-37
2022/01/19 07:31:16;;;;;;;6.70;3.60;;;;;;;5.23;41.50;101285.59;5050215;28;20025;-38
2022/01/19 07:33:41;;;;;;;11.60;4.75;;;;;;;5.22;40.51;101280.47;5050438;28;20069;-38
2022/01/19 07:36:07;;;;;;;9.40;4.25;;;;;;;4.71;42.07;101290.00;5049882;28;20029;-38
2022/01/19 07:38:32;;;;;;;6.97;4.15;;;;;;;5.18;40.71;101284.31;5050380;28;20056;-38
2022/01/19 07:40:58;;;;;;;11.35;4.78;;;;;;;5.15;41.06;101284.59;5050669;28;20037;-37
2022/01/19 07:43:23;;;;;;;10.38;4.50;;;;;;;5.05;41.79;101288.00;5050065;28;20032;-38
2022/01/19 07:45:49;;;;;;;9.00;4.70;;;;;;;5.33;40.56;101276.91;5049882;28;20021;-37
2022/01/19 07:48:14;;;;;;;10.43;4.63;;;;;;;5.41;40.09;101285.00;5048385;28;20024;-37
2022/01/19 07:50:40;;;;;;;8.23;4.65;;;;;;;5.79;39.68;101286.97;5049296;28;20021;-38
2022/01/19 07:53:05;;;;;;;9.10;4.15;;;;;;;5.68;39.47;101281.78;5049940;28;20036;-38
2022/01/19 07:55:31;;;;;;;9.32;4.40;;;;;;;5.70;39.45;101282.47;5049597;28;20033;-38
2022/01/19 07:57:56;;;;;;;9.90;5.00;;;;;;;6.02;39.53;101290.25;5049854;28;20034;-37
2022/01/19 08:00:22;;;;;;;8.93;4.50;;;;;;;6.26;38.19;101283.72;5049927;28;20546;-37
2022/01/19 08:02:49;;;;;;;9.02;4.30;;;;;;;5.86;38.58;101280.16;5050016;28;20104;-37
2022/01/19 08:05:15;;;;;;;9.23;4.40;;;;;;;5.85;38.54;101275.03;5048384;28;20132;-38
2022/01/19 08:07:40;;;;;;;10.45;4.50;;;;;;;5.40;39.08;101270.13;5049518;28;20555;-38
2022/01/19 08:10:07;;;;;;;14.52;4.65;;;;;;;5.44;39.43;101269.72;5049171;28;20497;-38
2022/01/19 08:12:32;;;;;;;8.82;3.90;;;;;;;5.59;38.84;101272.84;5049429;28;20021;-38
2022/01/19 08:14:58;;;;;;;8.27;4.43;;;;;;;6.03;38.69;101277.84;5049274;28;20024;-38
2022/01/19 08:17:26;;;;;;;10.65;4.88;;;;;;;6.16;38.46;101270.50;5049670;28;20401;-37
2022/01/19 08:19:52;;;;;;;8.05;4.65;;;;;;;6.45;38.24;101281.13;5049644;28;20075;-37
2022/01/19 08:22:18;;;;;;;8.88;4.40;;;;;;;6.58;37.15;101280.81;5049598;28;20028;-37
2022/01/19 08:24:44;;;;;;;7.95;4.00;;;;;;;5.98;38.08;101283.56;5049878;28;20045;-38
2022/01/19 08:27:09;;;;;;;7.13;4.00;;;;;;;5.39;38.92;101277.22;5049460;28;20457;-37
2022/01/19 08:29:35;;;;;;;10.50;4.13;;;;;;;6.03;38.11;101278.69;5049027;28;20027;-37
2022/01/19 08:32:00;;;;;;;11.23;3.83;;;;;;;6.29;37.66;101269.41;5049210;28;20037;-37
2022/01/19 08:34:26;;;;;;;7.68;3.80;;;;;;;6.09;37.50;101279.13;5049183;28;20024;-38
2022/01/19 08:36:51;;;;;;;8.00;4.03;;;;;;;6.38;38.02;101273.88;5049326;28;20024;-38
2022/01/19 08:39:18;;;;;;;7.97;4.05;;;;;;;5.87;38.31;101265.16;5048834;28;20408;-38
2022/01/19 08:41:43;;;;;;;8.05;4.15;;;;;;;6.21;38.58;101262.19;5048979;28;20029;-38
2022/01/19 08:44:09;;;;;;;10.00;3.97;;;;;;;6.38;37.72;101258.00;5048929;28;20029;-38
2022/01/19 08:46:34;;;;;;;8.30;3.72;;;;;;;6.32;37.96;101266.47;5047542;28;20476;-38
2022/01/19 08:49:00;;;;;;;7.80;4.07;;;;;;;5.98;38.88;101265.06;5048733;28;20463;-37
2022/01/19 08:51:25;;;;;;;8.38;3.80;;;;;;;6.16;39.09;101274.97;5048724;28;20086;-38
2022/01/19 08:53:50;;;;;;;8.80;3.92;;;;;;;5.95;38.84;101267.09;5048899;28;20445;-38
2022/01/19 08:56:16;;;;;;;9.18;3.65;;;;;;;5.91;39.24;101266.53;5049018;28;20025;-39
2022/01/19 08:58:41;;;;;;;7.57;3.72;;;;;;;5.93;39.53;101263.78;5049281;28;20032;-40
2022/01/19 09:01:07;;;;;;;7.85;4.28;;;;;;;6.38;38.85;101269.41;5048932;28;20025;-39
2022/01/19 09:03:32;;;;;;;7.70;3.90;;;;;;;6.72;38.04;101268.13;5049035;28;20426;-38
2022/01/19 09:05:58;;;;;;;8.50;4.00;;;;;;;7.32;36.86;101263.41;5048758;28;20398;-37
2022/01/19 09:08:23;;;;;;;7.35;3.80;;;;;;;7.11;37.63;101263.59;5048679;28;20049;-39
2022/01/19 09:10:50;;;;;;;9.45;4.68;;;;;;;7.02;37.22;101265.28;5048753;28;20025;-39
2022/01/19 09:13:16;;;;;;;10.75;4.18;;;;;;;6.51;38.48;101250.63;5048523;28;20170;-37
2022/01/19 09:15:42;;;;;;;10.25;4.50;;;;;;;7.03;37.10;101252.91;5049073;28;20587;-37
2022/01/19 09:18:08;;;;;;;8.93;4.38;;;;;;;7.11;36.95;101250.38;5048953;28;20103;-38
2022/01/19 09:20:33;;;;;;;11.32;4.05;;;;;;;6.70;37.61;101243.63;5048843;28;20021;-38
2022/01/19 09:22:59;;;;;;;8.05;4.18;;;;;;;6.78;37.75;101243.78;5048586;28;20036;-38
2022/01/19 09:25:24;;;;;;;11.82;4.20;;;;;;;6.36;37.93;101244.06;5048622;28;20036;-38
2022/01/19 09:27:49;;;;;;;9.60;4.13;;;;;;;6.30;37.74;101224.31;5047907;28;20499;-37
2022/01/19 09:30:17;;;;;;;11.70;3.88;;;;;;;6.39;37.76;101223.47;5048448;28;20100;-37
2022/01/19 09:32:45;;;;;;;9.55;3.97;;;;;;;6.29;38.66;101219.19;5048354;28;20466;-40
2022/01/19 09:35:10;;;;;;;9.48;4.15;;;;;;;6.35;38.54;101216.81;5048120;28;20021;-38
2022/01/19 09:37:37;;;;;;;9.55;4.07;;;;;;;6.78;38.04;101209.38;5046925;28;20036;-38
2022/01/19 09:40:04;;;;;;;7.05;3.88;;;;;;;6.45;37.90;101212.38;5048389;28;20153;-38
2022/01/19 09:42:30;;;;;;;7.45;4.03;;;;;;;6.67;37.56;101214.84;5048559;28;20028;-38
2022/01/19 09:44:55;;;;;;;8.20;3.53;;;;;;;7.07;36.70;101195.22;5048121;28;20405;-38
2022/01/19 09:47:21;;;;;;;8.18;3.45;;;;;;;6.44;37.03;101188.69;5048555;28;20028;-37
2022/01/19 09:49:46;;;;;;;7.45;3.25;;;;;;;6.12;38.46;101192.47;5048289;28;20075;-38
2022/01/19 09:52:12;;;;;;;7.78;3.08;;;;;;;5.99;38.31;101192.72;5049116;28;20028;-37
2022/01/19 09:54:37;;;;;;;8.13;3.00;;;;;;;6.21;37.26;101185.50;5052177;28;20021;-37
2022/01/19 09:57:03;;;;;;;7.20;3.33;;;;;;;6.07;38.41;101186.75;5052119;28;20473;-37
2022/01/19 09:59:29;;;;;;;5.35;3.17;;;;;;;6.18;37.84;101183.13;5052359;28;20025;-38
2022/01/19 10:01:54;;;;;;;6.57;2.92;;;;;;;6.34;37.45;101186.06;5052561;28;20029;-39
2022/01/19 10:04:22;;;;;;;5.22;2.95;;;;;;;6.55;36.67;101180.59;5052267;28;20040;-38
2022/01/19 10:06:47;;;;;;;7.90;3.42;;;;;;;6.54;37.54;101183.38;5052562;28;20044;-38
2022/01/19 10:09:13;;;;;;;7.80;3.10;;;;;;;6.33;36.80;101180.91;5051744;28;20057;-38
2022/01/19 10:17:10;;;;;;;5.82;3.10;;;;;;;6.72;36.92;101178.19;5068747;28;20063;-38
2022/01/19 10:19:41;;;;;;;7.82;3.72;;;;;;;6.93;37.20;101165.59;5055045;28;20052;-38
2022/01/19 10:22:16;;;;;;;7.15;3.13;;;;;;;6.63;36.81;101180.72;5052007;28;20028;-38
2022/01/19 10:25:05;;;;;;;8.32;3.30;;;;;;;6.81;36.98;101174.69;5052043;28;20075;-39
2022/01/19 10:27:45;;;;;;;5.20;2.92;;;;;;;6.87;36.74;101162.69;5051322;28;20072;-38
2022/01/19 10:30:24;;;;;;;6.10;3.13;;;;;;;6.60;37.08;101159.00;5052070;28;20029;-37
2022/01/19 10:32:51;;;;;;;7.40;3.30;;;;;;;6.65;36.62;101143.53;5051695;28;20033;-39
2022/01/19 10:35:23;;;;;;;6.03;2.85;;;;;;;6.98;36.04;101155.41;5050342;28;20025;-38
2022/01/19 10:38:09;;;;;;;10.13;2.97;;;;;;;6.47;36.07;101151.38;5051567;28;20114;-37
2022/01/19 10:40:36;;;;;;;7.95;3.35;;;;;;;6.85;35.88;101136.38;5051572;28;20111;-37
2022/01/19 10:43:24;;;;;;;5.72;3.13;;;;;;;6.34;36.64;101135.81;5051502;28;20180;-37
2022/01/19 10:45:50;;;;;;;8.05;3.30;;;;;;;6.30;36.72;101123.00;5051335;28;20021;-39
2022/01/19 10:48:36;;;;;;;8.80;3.92;;;;;;;6.39;36.90;101114.22;5050013;28;20040;-38
2022/01/19 10:51:21;;;;;;;5.53;3.15;;;;;;;6.33;36.69;101106.88;5050892;28;20108;-38
2022/01/19 10:54:08;;;;;;;6.32;3.10;;;;;;;6.58;35.94;101100.94;5050548;28;20020;-38
2022/01/19 10:56:34;;;;;;;6.45;3.13;;;;;;;6.91;35.48;101096.09;5043726;28;20083;-38
2022/01/19 10:59:05;;;;;;;6.90;3.17;;;;;;;6.61;35.90;101098.03;5051397;28;20036;-38
2022/01/19 11:01:58;;;;;;;6.65;3.28;;;;;;;6.55;37.90;101095.09;5050793;28;20017;-38
2022/01/19 11:04:33;;;;;;;7.18;2.95;;;;;;;6.41;36.89;101052.28;5049704;28;20035;-38
2022/01/19 11:07:07;;;;;;;5.93;3.40;;;;;;;6.95;36.93;101080.75;5050971;28;20053;-37
2022/01/19 11:09:35;;;;;;;8.07;3.28;;;;;;;6.90;36.23;101086.50;5050662;28;20040;-38
2022/01/19 11:12:07;;;;;;;8.57;3.53;;;;;;;7.05;35.96;101081.53;5050523;28;20021;-37
2022/01/19 11:14:35;;;;;;;7.05;3.25;;;;;;;6.84;35.95;101073.84;5049073;28;20029;-38
2022/01/19 11:17:01;;;;;;;7.78;3.30;;;;;;;6.98;35.84;101067.22;5050737;28;20017;-38
2022/01/19 11:19:26;;;;;;;9.40;3.65;;;;;;;6.63;36.81;101066.16;5050624;28;20407;-37
2022/01/19 11:22:05;;;;;;;8.15;3.50;;;;;;;6.95;36.76;101056.91;5050590;28;20048;-39
2022/01/19 11:24:58;;;;;;;7.93;3.30;;;;;;;6.95;36.57;101051.63;5049437;28;20017;-39
2022/01/19 11:27:28;;;;;;;6.07;2.97;;;;;;;6.93;35.13;101027.97;5050944;28;20040;-39
2022/01/19 11:30:14;;;;;;;11.32;3.63;;;;;;;7.14;34.82;101035.66;5032633;28;20413;-37
2022/01/19 11:32:40;;;;;;;7.60;3.50;;;;;;;7.03;35.36;101035.88;5050529;28;20028;-38
2022/01/19 11:35:06;;;;;;;8.75;3.47;;;;;;;7.01;35.87;101038.66;5050333;28;20021;-38
2022/01/19 11:37:41;;;;;;;6.30;2.92;;;;;;;7.41;35.29;101041.88;5050254;28;20038;-38
2022/01/19 11:40:12;;;;;;;9.43;3.60;;;;;;;7.24;35.07;101031.13;5050011;28;20036;-38
2022/01/19 11:42:38;;;;;;;8.98;3.63;;;;;;;7.87;33.91;101026.69;5049963;28;20107;-37
2022/01/19 11:45:08;;;;;;;6.20;3.20;;;;;;;7.19;34.63;101022.78;5049245;28;20035;-37
2022/01/19 11:47:34;;;;;;;7.32;3.38;;;;;;;7.19;35.30;101016.66;5050023;28;20100;-38
2022/01/19 11:50:20;;;;;;;6.90;3.28;;;;;;;7.43;34.85;101013.41;5050168;28;20025;-37
2022/01/19 11:52:47;;;;;;;6.00;3.33;;;;;;;7.19;36.25;101016.66;5049648;28;20056;-37
2022/01/19 11:55:18;;;;;;;9.60;3.60;;;;;;;7.50;34.63;101010.97;5045197;28;20044;-37
2022/01/19 11:57:48;;;;;;;5.22;3.20;;;;;;;7.87;34.14;101015.25;5030249;28;20528;-38
2022/01/19 12:00:15;;;;;;;7.20;3.42;;;;;;;7.80;35.10;101007.91;5030104;28;20029;-38
2022/01/19 12:02:42;;;;;;;6.25;3.85;;;;;;;7.66;34.27;101007.66;5030043;28;20524;-38
2022/01/19 12:05:10;;;;;;;6.00;3.38;;;;;;;7.35;35.57;100997.44;5030144;28;20551;-38
2022/01/19 12:07:39;;;;;;;9.65;3.25;;;;;;;7.37;36.54;100977.78;5027985;28;20280;-37
2022/01/19 12:10:31;;;;;;;8.05;3.40;;;;;;;7.24;34.82;100990.56;5029797;28;20055;-37
2022/01/19 12:13:14;;;;;;;;;;;;;;;7.05;35.91;100991.53;5030003;28;20505;-38
2022/01/19 12:15:49;;;;;;;6.32;3.38;;;;;;;7.36;35.25;100984.06;5028684;28;19909;-39
2022/01/19 12:18:41;;;;;;;5.63;3.70;;;;;;;7.29;35.09;100983.00;5030043;28;20026;-38
2022/01/19 12:21:08;;;;;;;6.97;3.58;;;;;;;8.01;33.83;100972.28;5028116;28;20025;-39
2022/01/19 12:23:35;;;;;;;6.45;3.30;;;;;;;7.57;33.47;100977.59;5028597;28;20017;-40
2022/01/19 12:26:00;;;;;;;8.57;3.63;;;;;;;7.31;34.24;100966.94;5029709;28;20021;-39
2022/01/19 12:28:37;;;;;;;7.80;3.35;;;;;;;7.60;34.08;100956.94;5029523;28;20026;-38
2022/01/19 12:31:22;;;;;;;9.07;3.47;;;;;;;7.88;32.97;100954.16;5029583;28;20379;-37
2022/01/19 12:34:02;;;;;;;5.47;3.63;;;;;;;7.48;33.72;100955.50;5029417;28;20083;-37
2022/01/19 12:36:40;;;;;;;7.60;3.40;;;;;;;7.38;34.55;100933.59;5029223;28;20036;-38
2022/01/19 12:39:24;;;;;;;7.57;3.38;;;;;;;8.30;32.93;100933.97;5029060;28;20396;-39
2022/01/19 12:42:03;;;;;;;8.48;3.72;;;;;;;7.86;33.62;100928.78;5029278;28;20403;-38
2022/01/19 12:44:34;;;;;;;7.82;3.50;;;;;;;7.80;34.05;100930.22;5027948;28;20433;-39
2022/01/19 12:47:00;;;;;;;5.75;3.30;;;;;;;7.32;33.87;100935.03;5029301;28;20021;-36
2022/01/19 12:49:26;;;;;;;11.00;3.90;;;;;;;7.68;33.83;100927.03;5027710;28;20025;-39
2022/01/19 12:51:52;;;;;;;5.97;3.42;;;;;;;7.77;33.50;100923.44;5028998;28;20013;-38
2022/01/19 12:54:19;;;;;;;8.02;3.75;;;;;;;7.73;32.71;100919.44;5040030;28;20463;-38
2022/01/19 12:57:02;;;;;;;13.40;3.83;;;;;;;8.22;32.88;100911.75;5031251;28;20032;-39
2022/01/19 12:59:27;;;;;;;11.35;3.63;;;;;;;8.12;32.47;100912.84;5048998;28;20025;-36